Time;durP1;ratioP1;P1;durP2;ratioP2;P2;SDS_P1;SDS_P2;PMS_P1;PMS_P2;Temp;Humidity;BMP_temperature;BMP_pressure;BME280_temperature;BME280_humidity;BME280_pressure;Samples;Min_cycle;Max_cycle;Signal;HPM_P1;HPM_P2
2020/12/28 00:00:09;;;;;;;20.70;19.60;;;;;;;;;;4995546;28;20230;-87
2020/12/28 00:02:36;;;;;;;19.90;18.80;;;;;;;;;;4996437;28;20206;-86
2020/12/28 00:05:05;;;;;;;20.42;19.30;;;;;;;;;;4995119;28;20215;-86
2020/12/28 00:07:31;;;;;;;20.35;19.35;;;;;;;;;;4996006;28;20343;-87
2020/12/28 00:09:58;;;;;;;19.65;18.65;;;;;;;;;;4995830;28;20202;-86
2020/12/28 00:12:28;;;;;;;19.60;18.60;;;;;;;;;;4995916;28;20191;-87
2020/12/28 00:14:55;;;;;;;20.10;19.00;;;;;;;;;;4995981;28;20253;-86
2020/12/28 00:17:22;;;;;;;19.15;18.15;;;;;;;;;;4995770;28;20207;-87
2020/12/28 00:19:49;;;;;;;19.95;18.95;;;;;;;;;;4995643;28;20215;-87
2020/12/28 00:22:17;;;;;;;19.88;18.85;;;;;;;;;;4994926;28;20210;-87
2020/12/28 00:24:43;;;;;;;19.77;18.77;;;;;;;;;;4996227;28;20203;-86
2020/12/28 00:27:10;;;;;;;19.42;18.42;;;;;;;;;;4995972;28;20192;-86
2020/12/28 00:29:38;;;;;;;19.75;18.75;;;;;;;;;;4996003;28;20629;-86
2020/12/28 00:32:05;;;;;;;19.77;18.77;;;;;;;;;;4995489;28;20200;-86
2020/12/28 00:34:32;;;;;;;19.30;18.30;;;;;;;;;;4995933;28;20191;-87
2020/12/28 00:36:59;;;;;;;20.70;19.60;;;;;;;;;;4995788;28;20195;-86
2020/12/28 00:39:25;;;;;;;19.85;18.85;;;;;;;;;;4995739;28;20234;-86
2020/12/28 00:41:52;;;;;;;19.20;18.20;;;;;;;;;;4995560;28;20219;-86
2020/12/28 00:44:19;;;;;;;19.40;18.40;;;;;;;;;;4995475;28;20198;-87
2020/12/28 00:46:47;;;;;;;19.30;18.30;;;;;;;;;;4995788;28;20191;-87
2020/12/28 00:49:14;;;;;;;19.30;18.30;;;;;;;;;;4995376;28;20213;-86
2020/12/28 00:51:42;;;;;;;19.67;18.67;;;;;;;;;;4995327;28;20191;-86
2020/12/28 00:54:08;;;;;;;19.45;18.42;;;;;;;;;;4995687;28;20202;-86
2020/12/28 00:56:35;;;;;;;19.90;18.80;;;;;;;;;;4995402;28;20190;-87
2020/12/28 00:59:02;;;;;;;20.17;19.08;;;;;;;;;;4995057;28;20253;-86
2020/12/28 01:01:29;;;;;;;19.67;18.58;;;;;;;;;;4995317;28;20223;-86
2020/12/28 01:03:57;;;;;;;19.70;18.63;;;;;;;;;;4995337;28;20212;-86
2020/12/28 01:06:24;;;;;;;19.60;18.50;;;;;;;;;;4994038;28;20196;-86
2020/12/28 01:08:51;;;;;;;19.75;18.65;;;;;;;;;;4994946;28;20239;-87
2020/12/28 01:11:20;;;;;;;19.30;18.30;;;;;;;;;;4995253;28;20195;-87
2020/12/28 01:13:47;;;;;;;19.98;18.83;;;;;;;;;;4994930;28;20198;-87
2020/12/28 01:16:14;;;;;;;19.00;18.00;;;;;;;;;;4994797;28;20195;-86
2020/12/28 01:18:42;;;;;;;19.80;18.70;;;;;;;;;;4995281;28;20191;-86
2020/12/28 01:21:10;;;;;;;20.08;18.98;;;;;;;;;;4994488;28;20218;-86
2020/12/28 01:23:36;;;;;;;19.83;18.73;;;;;;;;;;4994484;28;20289;-86
2020/12/28 01:26:04;;;;;;;19.42;18.40;;;;;;;;;;4995252;28;20196;-87
2020/12/28 01:28:30;;;;;;;19.20;18.20;;;;;;;;;;4994273;28;20532;-86
2020/12/28 01:30:57;;;;;;;19.60;18.50;;;;;;;;;;4994199;28;20546;-87
2020/12/28 01:33:24;;;;;;;19.40;18.30;;;;;;;;;;4994399;28;20203;-87
2020/12/28 01:35:51;;;;;;;19.42;18.42;;;;;;;;;;4995853;28;20202;-86
2020/12/28 01:38:19;;;;;;;18.95;17.95;;;;;;;;;;4995037;28;20301;-86
2020/12/28 01:40:46;;;;;;;19.38;18.27;;;;;;;;;;4994662;28;20215;-87
2020/12/28 01:43:13;;;;;;;18.92;17.90;;;;;;;;;;4995000;28;20195;-87
2020/12/28 01:45:40;;;;;;;19.48;18.38;;;;;;;;;;4994771;28;20191;-87
2020/12/28 01:48:07;;;;;;;19.05;18.05;;;;;;;;;;4994789;28;20190;-85
2020/12/28 01:50:34;;;;;;;19.77;18.67;;;;;;;;;;4994788;28;20219;-88
2020/12/28 01:53:01;;;;;;;19.38;18.38;;;;;;;;;;4995262;28;20532;-86
2020/12/28 01:55:30;;;;;;;19.35;18.30;;;;;;;;;;4993735;28;20191;-86
2020/12/28 01:57:57;;;;;;;18.90;17.90;;;;;;;;;;4995095;28;20202;-86
2020/12/28 02:00:24;;;;;;;19.35;18.35;;;;;;;;;;4994803;28;20293;-87
2020/12/28 02:02:51;;;;;;;19.40;18.30;;;;;;;;;;4993890;28;20220;-87
2020/12/28 02:05:18;;;;;;;19.65;18.55;;;;;;;;;;4993452;28;20202;-87
2020/12/28 02:07:46;;;;;;;20.15;19.05;;;;;;;;;;4993519;28;20281;-87
2020/12/28 02:10:13;;;;;;;19.30;18.20;;;;;;;;;;4994397;28;20278;-87
2020/12/28 02:12:40;;;;;;;19.50;18.50;;;;;;;;;;4994634;28;20196;-88
2020/12/28 02:15:08;;;;;;;19.15;18.15;;;;;;;;;;4994695;28;20288;-87
2020/12/28 02:17:35;;;;;;;20.05;18.95;;;;;;;;;;4995022;28;20187;-88
2020/12/28 02:20:02;;;;;;;20.05;18.95;;;;;;;;;;4994315;28;20201;-88
2020/12/28 02:22:29;;;;;;;19.92;18.73;;;;;;;;;;4994694;28;20191;-88
2020/12/28 02:24:56;;;;;;;19.42;18.42;;;;;;;;;;4994898;28;20215;-88
2020/12/28 02:27:23;;;;;;;19.48;18.45;;;;;;;;;;4994357;28;20197;-88
2020/12/28 02:29:50;;;;;;;19.08;18.08;;;;;;;;;;4993951;28;20202;-88
2020/12/28 02:32:17;;;;;;;19.25;18.25;;;;;;;;;;4994521;28;20214;-88
2020/12/28 02:34:44;;;;;;;19.65;18.65;;;;;;;;;;4998151;28;20195;-87
2020/12/28 02:37:11;;;;;;;19.13;18.13;;;;;;;;;;4996923;28;20210;-88
2020/12/28 02:39:39;;;;;;;19.30;18.20;;;;;;;;;;4997772;28;20226;-88
2020/12/28 02:42:06;;;;;;;19.00;18.00;;;;;;;;;;4998082;28;20226;-87
2020/12/28 02:44:32;;;;;;;19.08;18.00;;;;;;;;;;4997836;28;20219;-87
2020/12/28 02:46:59;;;;;;;19.00;18.00;;;;;;;;;;4997867;28;20198;-88
2020/12/28 02:49:27;;;;;;;19.67;18.58;;;;;;;;;;4997845;28;20191;-88
2020/12/28 02:51:54;;;;;;;19.30;18.30;;;;;;;;;;4996611;28;20295;-87
2020/12/28 02:54:20;;;;;;;19.10;18.10;;;;;;;;;;4997627;28;20238;-88
2020/12/28 02:56:48;;;;;;;18.70;17.60;;;;;;;;;;4996558;28;20644;-87
2020/12/28 02:59:15;;;;;;;19.20;18.10;;;;;;;;;;4997598;28;20194;-87
2020/12/28 03:01:42;;;;;;;19.15;18.15;;;;;;;;;;4996418;28;20636;-88
2020/12/28 03:04:09;;;;;;;19.17;18.17;;;;;;;;;;4996146;28;20557;-88
2020/12/28 03:06:36;;;;;;;19.27;18.17;;;;;;;;;;4996667;28;20210;-88
2020/12/28 03:09:03;;;;;;;19.17;18.17;;;;;;;;;;4997038;28;20239;-87
2020/12/28 03:11:30;;;;;;;19.52;18.45;;;;;;;;;;4997486;28;20195;-88
2020/12/28 03:13:58;;;;;;;19.40;18.30;;;;;;;;;;4997409;28;20692;-88
2020/12/28 03:16:25;;;;;;;20.02;18.95;;;;;;;;;;4997172;28;20198;-87
2020/12/28 03:18:52;;;;;;;20.05;18.95;;;;;;;;;;4997307;28;20206;-88
2020/12/28 03:21:19;;;;;;;19.70;18.70;;;;;;;;;;4997177;28;20222;-87
2020/12/28 03:23:46;;;;;;;20.25;19.15;;;;;;;;;;4995924;28;20194;-88
2020/12/28 03:26:13;;;;;;;19.60;18.55;;;;;;;;;;4996843;28;20195;-87
2020/12/28 03:28:39;;;;;;;19.70;18.60;;;;;;;;;;4996798;28;20241;-87
2020/12/28 03:31:07;;;;;;;19.60;18.60;;;;;;;;;;4996069;28;20589;-87
2020/12/28 03:33:35;;;;;;;19.80;18.80;;;;;;;;;;4996690;28;20216;-87
2020/12/28 03:36:02;;;;;;;20.38;19.27;;;;;;;;;;4995901;28;20289;-87
2020/12/28 03:38:29;;;;;;;20.15;19.15;;;;;;;;;;4996892;28;20673;-88
2020/12/28 03:40:56;;;;;;;19.88;18.88;;;;;;;;;;4995323;28;20268;-88
2020/12/28 03:43:23;;;;;;;19.40;18.40;;;;;;;;;;4995232;28;20210;-88
2020/12/28 03:45:50;;;;;;;20.00;19.00;;;;;;;;;;4996770;28;20207;-87
2020/12/28 03:48:17;;;;;;;19.50;18.50;;;;;;;;;;4996612;28;20229;-87
2020/12/28 03:50:45;;;;;;;18.80;17.80;;;;;;;;;;4996170;28;20221;-88
2020/12/28 03:53:11;;;;;;;19.23;18.20;;;;;;;;;;4995640;28;20230;-87
2020/12/28 03:55:38;;;;;;;19.13;18.13;;;;;;;;;;4995555;28;20194;-87
2020/12/28 03:58:06;;;;;;;19.30;18.30;;;;;;;;;;4996403;28;20191;-87
2020/12/28 04:00:32;;;;;;;18.90;17.90;;;;;;;;;;4979260;28;20231;-88
2020/12/28 04:02:59;;;;;;;18.65;17.65;;;;;;;;;;4994966;28;20564;-88
2020/12/28 04:05:27;;;;;;;19.10;18.10;;;;;;;;;;4996367;28;20195;-88
2020/12/28 04:07:54;;;;;;;18.95;17.95;;;;;;;;;;4995137;28;20231;-87
2020/12/28 04:10:21;;;;;;;18.90;17.90;;;;;;;;;;4995979;28;20191;-88
2020/12/28 04:12:48;;;;;;;20.30;19.20;;;;;;;;;;4996372;28;20221;-87
2020/12/28 04:15:15;;;;;;;20.27;19.17;;;;;;;;;;4994991;28;20649;-88
2020/12/28 04:17:42;;;;;;;19.85;18.75;;;;;;;;;;4996357;28;20602;-87
2020/12/28 04:20:09;;;;;;;19.65;18.65;;;;;;;;;;4995175;28;20675;-87
2020/12/28 04:22:36;;;;;;;20.08;18.98;;;;;;;;;;4996017;28;20278;-87
2020/12/28 04:25:03;;;;;;;19.90;18.80;;;;;;;;;;4994943;28;20206;-88
2020/12/28 04:27:30;;;;;;;19.30;18.30;;;;;;;;;;4995759;28;20194;-87
2020/12/28 04:29:57;;;;;;;20.35;19.25;;;;;;;;;;4995688;28;20561;-87
2020/12/28 04:32:24;;;;;;;20.00;18.90;;;;;;;;;;4994684;28;20207;-87
2020/12/28 04:34:51;;;;;;;19.95;18.85;;;;;;;;;;4996369;28;20211;-88
2020/12/28 04:37:18;;;;;;;20.10;19.00;;;;;;;;;;4995716;28;20216;-87
2020/12/28 04:39:46;;;;;;;19.63;18.63;;;;;;;;;;4995737;28;20221;-87
2020/12/28 04:42:13;;;;;;;20.08;18.98;;;;;;;;;;4995422;28;20323;-87
2020/12/28 04:44:40;;;;;;;19.35;18.35;;;;;;;;;;4994804;28;20203;-88
2020/12/28 04:47:07;;;;;;;19.40;18.30;;;;;;;;;;4994600;28;20235;-87
2020/12/28 04:49:34;;;;;;;18.90;17.90;;;;;;;;;;4995345;28;20211;-87
2020/12/28 04:52:02;;;;;;;19.00;18.00;;;;;;;;;;4995694;28;20202;-87
2020/12/28 04:54:29;;;;;;;19.40;18.30;;;;;;;;;;4994791;28;20211;-87
2020/12/28 04:56:58;;;;;;;19.40;18.30;;;;;;;;;;4996321;28;20265;-87
2020/12/28 04:59:25;;;;;;;19.60;18.40;;;;;;;;;;4995421;28;20199;-88
2020/12/28 05:01:53;;;;;;;19.70;18.60;;;;;;;;;;4995258;28;20226;-87
2020/12/28 05:04:20;;;;;;;19.50;18.40;;;;;;;;;;4995060;28;20218;-87
2020/12/28 05:06:59;;;;;;;20.58;19.40;;;;;;;;;;4994440;28;20210;-87
2020/12/28 05:09:26;;;;;;;19.40;18.30;;;;;;;;;;4994946;28;20241;-87
2020/12/28 05:11:54;;;;;;;19.38;18.27;;;;;;;;;;4995388;28;20202;-87
2020/12/28 05:14:21;;;;;;;19.05;18.00;;;;;;;;;;4995041;28;20199;-87
2020/12/28 05:16:48;;;;;;;19.10;18.00;;;;;;;;;;4995142;28;20207;-87
2020/12/28 05:19:15;;;;;;;19.20;18.10;;;;;;;;;;4995320;28;20249;-87
2020/12/28 05:21:43;;;;;;;20.00;18.90;;;;;;;;;;4995232;28;20223;-88
2020/12/28 05:24:13;;;;;;;19.00;17.90;;;;;;;;;;4994964;28;20199;-87
2020/12/28 05:26:41;;;;;;;19.05;18.05;;;;;;;;;;4995327;28;20250;-87
2020/12/28 05:29:10;;;;;;;19.42;18.33;;;;;;;;;;4994957;28;20186;-87
2020/12/28 05:31:39;;;;;;;21.20;20.00;;;;;;;;;;4995330;28;20190;-87
2020/12/28 05:34:07;;;;;;;21.15;19.95;;;;;;;;;;4994908;28;20192;-87
2020/12/28 05:36:35;;;;;;;22.00;20.70;;;;;;;;;;4993968;28;20261;-87
2020/12/28 05:39:02;;;;;;;20.20;19.10;;;;;;;;;;4994902;28;20255;-87
2020/12/28 05:41:29;;;;;;;20.50;19.30;;;;;;;;;;4995075;28;20234;-88
2020/12/28 05:43:56;;;;;;;20.50;19.40;;;;;;;;;;4994991;28;20208;-87
2020/12/28 05:46:23;;;;;;;21.05;19.85;;;;;;;;;;4994934;28;20665;-87
2020/12/28 05:48:54;;;;;;;20.80;19.70;;;;;;;;;;4994792;28;20206;-86
2020/12/28 05:51:21;;;;;;;23.83;22.33;;;;;;;;;;4995047;28;20192;-86
2020/12/28 05:53:49;;;;;;;23.38;21.98;;;;;;;;;;4994785;28;20192;-87
2020/12/28 05:56:17;;;;;;;22.60;21.30;;;;;;;;;;4994828;28;20195;-87
2020/12/28 05:58:44;;;;;;;21.35;20.15;;;;;;;;;;4994704;28;20193;-87
2020/12/28 06:01:11;;;;;;;20.90;19.80;;;;;;;;;;4994510;28;20717;-86
2020/12/28 06:03:42;;;;;;;21.67;20.48;;;;;;;;;;4994470;28;20205;-87
2020/12/28 06:06:09;;;;;;;21.95;20.75;;;;;;;;;;4995199;28;20653;-86
2020/12/28 06:08:36;;;;;;;20.25;19.15;;;;;;;;;;4998128;28;20231;-86
2020/12/28 06:11:06;;;;;;;20.48;19.38;;;;;;;;;;4998640;28;20555;-86
2020/12/28 06:13:33;;;;;;;21.20;20.10;;;;;;;;;;4998270;28;20192;-87
2020/12/28 06:16:03;;;;;;;20.73;19.63;;;;;;;;;;4998237;28;20250;-86
2020/12/28 06:18:31;;;;;;;20.90;19.80;;;;;;;;;;4998478;28;20207;-86
2020/12/28 06:20:59;;;;;;;20.25;19.15;;;;;;;;;;4997246;28;20230;-78
2020/12/28 06:23:27;;;;;;;20.75;19.63;;;;;;;;;;4998283;28;20226;-86
2020/12/28 06:25:54;;;;;;;19.95;18.88;;;;;;;;;;4998090;28;20194;-86
2020/12/28 06:28:25;;;;;;;19.38;18.38;;;;;;;;;;4997958;28;20661;-86
2020/12/28 06:30:52;;;;;;;20.20;19.10;;;;;;;;;;4998356;28;20191;-86
2020/12/28 06:33:19;;;;;;;20.75;19.65;;;;;;;;;;4997871;28;20195;-86
2020/12/28 06:35:47;;;;;;;19.60;18.50;;;;;;;;;;4998137;28;20250;-86
2020/12/28 06:38:13;;;;;;;19.15;18.15;;;;;;;;;;4997953;28;20226;-86
2020/12/28 06:40:42;;;;;;;19.48;18.38;;;;;;;;;;4997988;28;20214;-86
2020/12/28 06:43:12;;;;;;;19.63;18.52;;;;;;;;;;4998263;28;20194;-86
2020/12/28 06:45:39;;;;;;;19.83;18.73;;;;;;;;;;4997621;28;20234;-87
2020/12/28 06:48:16;;;;;;;19.45;18.45;;;;;;;;;;4997574;28;20190;-87
2020/12/28 06:50:43;;;;;;;20.65;19.42;;;;;;;;;;4997566;28;20655;-87
2020/12/28 06:53:10;;;;;;;20.90;19.70;;;;;;;;;;4998057;28;20191;-86
2020/12/28 06:55:37;;;;;;;20.10;19.00;;;;;;;;;;4996737;28;20206;-86
2020/12/28 06:58:05;;;;;;;20.92;19.83;;;;;;;;;;4997772;28;20537;-86
2020/12/28 07:00:32;;;;;;;21.05;19.85;;;;;;;;;;4997325;28;20644;-87
2020/12/28 07:02:58;;;;;;;21.65;20.48;;;;;;;;;;4997252;28;20261;-86
2020/12/28 07:05:26;;;;;;;20.85;19.70;;;;;;;;;;4997695;28;20552;-86
2020/12/28 07:07:53;;;;;;;20.70;19.60;;;;;;;;;;4997710;28;20604;-85
2020/12/28 07:10:21;;;;;;;21.20;19.90;;;;;;;;;;4997626;28;20207;-85
2020/12/28 07:12:48;;;;;;;21.17;20.08;;;;;;;;;;4997682;28;20203;-85
2020/12/28 07:15:16;;;;;;;19.70;18.70;;;;;;;;;;4997471;28;20199;-85
2020/12/28 07:17:43;;;;;;;20.70;19.50;;;;;;;;;;4996397;28;20207;-85
2020/12/28 07:20:12;;;;;;;19.63;18.52;;;;;;;;;;4996795;28;20234;-84
2020/12/28 07:22:39;;;;;;;21.75;20.55;;;;;;;;;;4996758;28;20759;-84
2020/12/28 07:25:06;;;;;;;22.42;21.23;;;;;;;;;;4996812;28;20218;-90
2020/12/28 07:27:34;;;;;;;21.08;19.95;;;;;;;;;;4997136;28;20198;-83
2020/12/28 07:30:05;;;;;;;21.30;20.20;;;;;;;;;;4996061;28;20645;-85
2020/12/28 07:32:33;;;;;;;21.40;20.20;;;;;;;;;;4996943;28;20195;-87
2020/12/28 07:35:00;;;;;;;20.77;19.67;;;;;;;;;;4996694;28;20242;-86
2020/12/28 07:37:29;;;;;;;20.42;19.33;;;;;;;;;;4997101;28;20241;-88
2020/12/28 07:39:55;;;;;;;19.33;18.30;;;;;;;;;;4996926;28;20191;-88
2020/12/28 07:42:23;;;;;;;20.55;19.45;;;;;;;;;;4996361;28;20236;-87
2020/12/28 07:44:54;;;;;;;20.48;19.38;;;;;;;;;;4995288;28;20206;-86
2020/12/28 07:47:22;;;;;;;20.27;19.17;;;;;;;;;;4996587;28;20192;-86
2020/12/28 07:49:51;;;;;;;19.98;18.85;;;;;;;;;;4995435;28;20198;-85
2020/12/28 07:52:24;;;;;;;20.15;19.05;;;;;;;;;;4996835;28;20191;-83
2020/12/28 07:54:57;;;;;;;19.40;18.40;;;;;;;;;;4996650;28;20222;-82
2020/12/28 07:57:27;;;;;;;19.60;18.50;;;;;;;;;;4996580;28;20224;-85
2020/12/28 07:59:57;;;;;;;19.70;18.60;;;;;;;;;;4995984;28;20210;-84
2020/12/28 08:02:42;;;;;;;20.40;19.30;;;;;;;;;;4995690;28;20727;-83
2020/12/28 08:05:11;;;;;;;19.80;18.70;;;;;;;;;;4995684;28;20203;-79
2020/12/28 08:07:38;;;;;;;19.00;17.98;;;;;;;;;;4995495;28;20697;-78
2020/12/28 08:10:07;;;;;;;20.13;19.02;;;;;;;;;;4995746;28;20653;-82
2020/12/28 08:12:34;;;;;;;19.60;18.50;;;;;;;;;;4995591;28;20207;-81
2020/12/28 08:15:01;;;;;;;19.35;18.35;;;;;;;;;;4996049;28;20192;-81
2020/12/28 08:17:28;;;;;;;18.80;17.80;;;;;;;;;;4995900;28;20187;-82
2020/12/28 08:20:04;;;;;;;19.92;18.92;;;;;;;;;;4996624;28;20199;-87
2020/12/28 08:22:32;;;;;;;19.95;18.85;;;;;;;;;;4994294;28;20235;-87
2020/12/28 08:25:00;;;;;;;19.90;18.90;;;;;;;;;;4995997;28;20196;-86
2020/12/28 08:27:30;;;;;;;19.40;18.40;;;;;;;;;;4996148;28;20194;-93
2020/12/28 08:29:57;;;;;;;19.92;18.83;;;;;;;;;;4996946;28;20214;-85
2020/12/28 08:32:27;;;;;;;19.70;18.60;;;;;;;;;;4995294;28;20196;-83
2020/12/28 08:34:54;;;;;;;20.27;19.17;;;;;;;;;;4995899;28;20188;-84
2020/12/28 08:37:21;;;;;;;20.00;18.90;;;;;;;;;;4994304;28;20192;-84
2020/12/28 08:39:49;;;;;;;19.50;18.50;;;;;;;;;;4996016;28;20192;-93
2020/12/28 08:42:26;;;;;;;19.05;17.95;;;;;;;;;;4996409;28;20219;-82
2020/12/28 08:44:52;;;;;;;20.50;19.40;;;;;;;;;;4996199;28;20196;-93
2020/12/28 08:47:19;;;;;;;20.42;19.33;;;;;;;;;;4995795;28;20639;-94
2020/12/28 08:49:48;;;;;;;21.30;20.20;;;;;;;;;;4995576;28;20199;-95
2020/12/28 08:52:16;;;;;;;20.20;19.10;;;;;;;;;;4995357;28;20212;-94
2020/12/28 08:54:43;;;;;;;21.13;19.92;;;;;;;;;;4994969;28;20216;-93
2020/12/28 08:57:19;;;;;;;19.90;18.80;;;;;;;;;;4995754;28;20625;-83
2020/12/28 08:59:48;;;;;;;20.90;19.80;;;;;;;;;;4995448;28;20544;-90
2020/12/28 09:02:16;;;;;;;19.90;18.80;;;;;;;;;;4994172;28;20227;-90
2020/12/28 09:04:42;;;;;;;20.92;19.83;;;;;;;;;;4995227;28;20238;-90
2020/12/28 09:07:09;;;;;;;19.90;18.80;;;;;;;;;;4995413;28;20605;-88
2020/12/28 09:09:36;;;;;;;20.15;19.05;;;;;;;;;;4995475;28;20218;-87
2020/12/28 09:12:03;;;;;;;20.17;19.08;;;;;;;;;;4995347;28;20563;-86
2020/12/28 09:14:31;;;;;;;20.80;19.60;;;;;;;;;;4995491;28;20202;-89
2020/12/28 09:16:58;;;;;;;21.25;20.05;;;;;;;;;;4995759;28;20556;-87
2020/12/28 09:19:25;;;;;;;20.55;19.45;;;;;;;;;;4995072;28;20212;-87
2020/12/28 09:21:52;;;;;;;22.70;21.50;;;;;;;;;;4995273;28;20228;-82
2020/12/28 09:24:19;;;;;;;20.65;19.55;;;;;;;;;;4995058;28;20650;-83
2020/12/28 09:26:46;;;;;;;21.40;19.90;;;;;;;;;;4995127;28;20219;-88
2020/12/28 09:29:13;;;;;;;20.17;19.08;;;;;;;;;;4995299;28;20216;-89
2020/12/28 09:31:41;;;;;;;21.73;20.52;;;;;;;;;;4995382;28;20223;-89
2020/12/28 09:34:08;;;;;;;21.45;20.25;;;;;;;;;;4995000;28;20195;-87
2020/12/28 09:36:35;;;;;;;21.80;20.60;;;;;;;;;;4995115;28;20215;-87
2020/12/28 09:39:02;;;;;;;20.73;19.45;;;;;;;;;;4994765;28;20227;-87
2020/12/28 09:41:29;;;;;;;21.73;20.52;;;;;;;;;;4997183;28;20281;-85
2020/12/28 09:43:55;;;;;;;20.48;19.35;;;;;;;;;;4999198;28;20191;-87
2020/12/28 09:46:22;;;;;;;20.30;19.10;;;;;;;;;;4999130;28;20219;-93
2020/12/28 09:48:51;;;;;;;21.05;19.67;;;;;;;;;;4999367;28;20212;-91
2020/12/28 09:51:18;;;;;;;19.80;18.70;;;;;;;;;;4999535;28;20243;-91
2020/12/28 09:53:45;;;;;;;20.40;19.20;;;;;;;;;;4999648;28;20192;-90
2020/12/28 09:56:12;;;;;;;20.88;19.77;;;;;;;;;;4998938;28;20685;-91
2020/12/28 09:58:39;;;;;;;19.73;18.63;;;;;;;;;;4998980;28;20211;-90
2020/12/28 10:01:06;;;;;;;20.73;19.42;;;;;;;;;;4997571;28;20601;-91
2020/12/28 10:03:33;;;;;;;21.70;20.50;;;;;;;;;;4998874;28;20196;-88
2020/12/28 10:06:01;;;;;;;21.15;19.90;;;;;;;;;;4998633;28;20224;-87
2020/12/28 10:08:28;;;;;;;20.70;19.50;;;;;;;;;;4998689;28;20235;-92
2020/12/28 10:10:55;;;;;;;20.45;19.27;;;;;;;;;;4998462;28;20207;-92
2020/12/28 10:13:22;;;;;;;19.92;18.73;;;;;;;;;;4999040;28;20191;-93
2020/12/28 10:15:48;;;;;;;19.92;18.83;;;;;;;;;;4998802;28;20212;-92
2020/12/28 10:18:34;;;;;;;20.25;19.15;;;;;;;;;;4998791;28;20196;-85
2020/12/28 10:21:02;;;;;;;19.73;18.52;;;;;;;;;;4998374;28;20216;-88
2020/12/28 10:23:29;;;;;;;20.20;19.10;;;;;;;;;;4997818;28;20626;-90
2020/12/28 10:25:56;;;;;;;21.73;20.63;;;;;;;;;;4996854;28;20204;-94
2020/12/28 10:28:24;;;;;;;21.27;20.17;;;;;;;;;;4997996;28;20683;-89
2020/12/28 10:30:51;;;;;;;21.85;20.65;;;;;;;;;;4998286;28;20594;-83
2020/12/28 10:33:18;;;;;;;21.08;19.95;;;;;;;;;;4997015;28;20192;-83
2020/12/28 10:35:45;;;;;;;21.67;20.42;;;;;;;;;;4998079;28;20545;-87
2020/12/28 10:38:13;;;;;;;20.08;18.98;;;;;;;;;;4997937;28;20259;-90
2020/12/28 10:40:40;;;;;;;19.48;18.48;;;;;;;;;;4996921;28;20204;-91
2020/12/28 10:43:07;;;;;;;20.02;18.92;;;;;;;;;;4998003;28;20245;-90
2020/12/28 10:45:33;;;;;;;19.63;18.52;;;;;;;;;;4996856;28;20204;-88
2020/12/28 10:48:00;;;;;;;19.80;18.70;;;;;;;;;;4997810;28;20207;-85
2020/12/28 10:50:28;;;;;;;20.35;19.25;;;;;;;;;;4998319;28;20190;-90
2020/12/28 10:52:54;;;;;;;20.33;19.23;;;;;;;;;;4997231;28;20228;-90
2020/12/28 10:55:23;;;;;;;20.00;18.90;;;;;;;;;;4999004;28;20692;-90
2020/12/28 10:57:50;;;;;;;20.20;19.10;;;;;;;;;;4997565;28;20228;-81
2020/12/28 11:00:17;;;;;;;20.50;19.30;;;;;;;;;;4997932;28;20521;-92
2020/12/28 11:02:44;;;;;;;21.17;19.98;;;;;;;;;;4997965;28;20234;-87
2020/12/28 11:05:11;;;;;;;21.67;20.40;;;;;;;;;;4996614;28;20616;-93
2020/12/28 11:07:38;;;;;;;20.92;19.80;;;;;;;;;;4996421;28;20239;-90
2020/12/28 11:10:05;;;;;;;20.80;19.60;;;;;;;;;;4997243;28;20190;-93
2020/12/28 11:12:32;;;;;;;22.13;20.92;;;;;;;;;;4999033;28;20194;-93
2020/12/28 11:14:59;;;;;;;21.10;19.90;;;;;;;;;;5004672;28;20191;-93
2020/12/28 11:17:26;;;;;;;22.80;21.60;;;;;;;;;;4997720;28;20295;-93
2020/12/28 11:19:53;;;;;;;22.13;20.83;;;;;;;;;;5001977;28;20211;-93
2020/12/28 11:22:20;;;;;;;21.10;19.92;;;;;;;;;;4999144;28;20211;-93
2020/12/28 11:24:47;;;;;;;20.52;19.42;;;;;;;;;;4997441;28;20186;-94
2020/12/28 11:27:14;;;;;;;22.65;21.45;;;;;;;;;;4996974;28;20315;-93
2020/12/28 11:29:42;;;;;;;21.23;20.05;;;;;;;;;;4995863;28;20664;-94
2020/12/28 11:32:09;;;;;;;20.30;19.20;;;;;;;;;;4996182;28;20523;-93
2020/12/28 11:34:36;;;;;;;20.80;19.67;;;;;;;;;;4997276;28;20196;-93
2020/12/28 11:37:03;;;;;;;20.10;19.00;;;;;;;;;;4996564;28;20649;-94
2020/12/28 11:39:29;;;;;;;19.50;18.40;;;;;;;;;;4997569;28;20188;-93
2020/12/28 11:41:56;;;;;;;19.58;18.50;;;;;;;;;;4996236;28;20235;-93
2020/12/28 11:44:23;;;;;;;20.20;19.00;;;;;;;;;;4996786;28;20215;-93
2020/12/28 11:46:54;;;;;;;19.73;18.63;;;;;;;;;;4996903;28;20269;-93
2020/12/28 11:49:21;;;;;;;20.45;19.35;;;;;;;;;;4997707;28;20189;-92
2020/12/28 11:51:51;;;;;;;20.70;19.60;;;;;;;;;;4997431;28;20199;-93
2020/12/28 11:54:18;;;;;;;20.17;18.98;;;;;;;;;;4996837;28;20246;-93
2020/12/28 11:56:45;;;;;;;20.83;19.52;;;;;;;;;;4995458;28;20211;-93
2020/12/28 11:59:15;;;;;;;20.77;19.58;;;;;;;;;;4996338;28;20195;-89
2020/12/28 12:01:46;;;;;;;20.25;19.10;;;;;;;;;;4996296;28;20275;-90
2020/12/28 12:04:14;;;;;;;20.48;19.27;;;;;;;;;;4996168;28;20646;-92
2020/12/28 12:06:41;;;;;;;20.08;18.95;;;;;;;;;;4996620;28;20204;-90
2020/12/28 12:09:12;;;;;;;20.20;19.00;;;;;;;;;;4996072;28;20231;-92
2020/12/28 12:11:42;;;;;;;20.63;19.42;;;;;;;;;;4996233;28;20659;-91
2020/12/28 12:14:08;;;;;;;21.17;19.90;;;;;;;;;;4996198;28;20192;-91
2020/12/28 12:16:35;;;;;;;20.08;18.88;;;;;;;;;;4996664;28;20205;-91
2020/12/28 12:19:02;;;;;;;20.35;19.15;;;;;;;;;;4995884;28;20192;-92
2020/12/28 12:21:30;;;;;;;21.05;19.85;;;;;;;;;;4996063;28;20232;-91
2020/12/28 12:23:57;;;;;;;20.40;19.30;;;;;;;;;;4995995;28;20214;-91
2020/12/28 12:26:24;;;;;;;20.63;19.52;;;;;;;;;;4996067;28;20629;-89
2020/12/28 12:28:52;;;;;;;20.23;19.02;;;;;;;;;;4996271;28;20554;-90
2020/12/28 12:31:19;;;;;;;20.05;18.95;;;;;;;;;;4996075;28;20626;-91
2020/12/28 12:33:46;;;;;;;21.33;20.02;;;;;;;;;;4994677;28;20211;-92
2020/12/28 12:36:13;;;;;;;20.98;19.77;;;;;;;;;;4995966;28;20195;-92
2020/12/28 12:38:41;;;;;;;21.17;19.88;;;;;;;;;;4995729;28;20234;-91
2020/12/28 12:41:08;;;;;;;20.98;19.77;;;;;;;;;;4994711;28;20193;-92
2020/12/28 12:43:35;;;;;;;20.30;19.20;;;;;;;;;;4995946;28;20214;-92
2020/12/28 12:46:02;;;;;;;21.05;19.75;;;;;;;;;;4995683;28;20207;-91
2020/12/28 12:48:29;;;;;;;20.10;19.00;;;;;;;;;;4995731;28;20188;-92
2020/12/28 12:50:56;;;;;;;20.48;19.27;;;;;;;;;;4994632;28;20203;-93
2020/12/28 12:53:23;;;;;;;20.73;19.52;;;;;;;;;;4995813;28;20200;-85
2020/12/28 12:55:51;;;;;;;21.50;20.30;;;;;;;;;;4995232;28;20660;-89
2020/12/28 12:58:18;;;;;;;19.90;18.80;;;;;;;;;;4995749;28;20279;-88
2020/12/28 13:00:44;;;;;;;20.80;19.50;;;;;;;;;;4995380;28;20271;-93
2020/12/28 13:03:11;;;;;;;21.00;19.70;;;;;;;;;;4995097;28;20278;-92
2020/12/28 13:05:38;;;;;;;20.63;19.48;;;;;;;;;;4995878;28;20207;-92
2020/12/28 13:08:05;;;;;;;20.38;19.27;;;;;;;;;;4995001;28;20238;-91
2020/12/28 13:10:32;;;;;;;20.48;19.27;;;;;;;;;;4995361;28;20225;-91
2020/12/28 13:13:00;;;;;;;20.08;18.98;;;;;;;;;;4995305;28;20190;-91
2020/12/28 13:15:27;;;;;;;20.42;19.33;;;;;;;;;;4994895;28;20196;-91
2020/12/28 13:17:54;;;;;;;21.35;20.15;;;;;;;;;;4995274;28;20203;-91
2020/12/28 13:20:23;;;;;;;20.52;19.00;;;;;;;;;;4995429;28;20199;-92
2020/12/28 13:22:50;;;;;;;20.33;19.13;;;;;;;;;;4995492;28;20227;-90
2020/12/28 13:25:17;;;;;;;20.98;19.67;;;;;;;;;;4995286;28;20215;-91
2020/12/28 13:27:44;;;;;;;21.02;19.83;;;;;;;;;;4995138;28;20196;-91
2020/12/28 13:30:11;;;;;;;20.75;19.35;;;;;;;;;;4995012;28;20266;-92
2020/12/28 13:32:40;;;;;;;20.50;19.35;;;;;;;;;;4994823;28;20200;-92
2020/12/28 13:35:07;;;;;;;20.90;19.58;;;;;;;;;;4995336;28;20211;-91
2020/12/28 13:37:34;;;;;;;20.35;19.15;;;;;;;;;;4994958;28;20228;-92
2020/12/28 13:40:00;;;;;;;21.42;20.08;;;;;;;;;;4995200;28;20277;-91
2020/12/28 13:42:27;;;;;;;20.60;19.50;;;;;;;;;;4995004;28;20231;-91
2020/12/28 13:44:54;;;;;;;20.08;18.98;;;;;;;;;;4994830;28;20187;-91
2020/12/28 13:47:22;;;;;;;20.23;19.23;;;;;;;;;;4995270;28;20262;-91
2020/12/28 13:49:49;;;;;;;21.05;19.95;;;;;;;;;;4994874;28;20190;-91
2020/12/28 13:52:16;;;;;;;20.67;19.58;;;;;;;;;;4994531;28;20240;-91
2020/12/28 13:54:43;;;;;;;21.92;20.63;;;;;;;;;;4995415;28;20536;-91
2020/12/28 13:57:10;;;;;;;21.40;20.30;;;;;;;;;;4995062;28;20278;-92
2020/12/28 13:59:39;;;;;;;21.67;20.58;;;;;;;;;;4994682;28;20676;-91
2020/12/28 14:02:07;;;;;;;20.45;19.30;;;;;;;;;;4995289;28;20215;-92
2020/12/28 14:04:35;;;;;;;20.20;19.20;;;;;;;;;;4995302;28;20199;-92
2020/12/28 14:07:03;;;;;;;19.90;18.85;;;;;;;;;;4994734;28;20218;-92
2020/12/28 14:09:29;;;;;;;21.40;20.27;;;;;;;;;;4994748;28;20235;-93
2020/12/28 14:11:56;;;;;;;22.00;20.80;;;;;;;;;;4995072;28;20625;-91
2020/12/28 14:14:23;;;;;;;21.02;19.92;;;;;;;;;;4995194;28;20196;-92
2020/12/28 14:16:50;;;;;;;21.30;20.10;;;;;;;;;;4994894;28;20191;-92